sensor_id;sensor_type;location;lat;lon;timestamp;temperature;humidity
4960;DHT22;2495;48.200;11.532;2023-02-28T03:31:39;0.40;69.40
4960;DHT22;2495;48.200;11.532;2023-02-28T03:36:41;0.40;69.60
4960;DHT22;2495;48.200;11.532;2023-02-28T03:42:00;0.40;68.90
4960;DHT22;2495;48.200;11.532;2023-02-28T03:47:02;0.50;69.30
4960;DHT22;2495;48.200;11.532;2023-02-28T03:52:02;0.70;70.20
4960;DHT22;2495;48.200;11.532;2023-02-28T03:57:06;0.70;68.60
4960;DHT22;2495;48.200;11.532;2023-02-28T04:02:07;0.90;70.10
4960;DHT22;2495;48.200;11.532;2023-02-28T04:07:08;1.10;69.30
4960;DHT22;2495;48.200;11.532;2023-02-28T04:12:09;1.00;68.40
4960;DHT22;2495;48.200;11.532;2023-02-28T04:17:11;0.90;68.50
4960;DHT22;2495;48.200;11.532;2023-02-28T04:22:12;0.70;68.80
4960;DHT22;2495;48.200;11.532;2023-02-28T04:27:13;0.60;68.90
4960;DHT22;2495;48.200;11.532;2023-02-28T04:32:14;0.60;69.40
4960;DHT22;2495;48.200;11.532;2023-02-28T04:37:16;0.60;69.70
4960;DHT22;2495;48.200;11.532;2023-02-28T04:42:17;0.80;71.10
4960;DHT22;2495;48.200;11.532;2023-02-28T04:47:18;0.90;69.90
4960;DHT22;2495;48.200;11.532;2023-02-28T04:52:19;0.90;69.70
4960;DHT22;2495;48.200;11.532;2023-02-28T04:57:21;1.10;70.70
4960;DHT22;2495;48.200;11.532;2023-02-28T05:02:22;1.20;69.40
4960;DHT22;2495;48.200;11.532;2023-02-28T05:07:23;1.00;69.50
4960;DHT22;2495;48.200;11.532;2023-02-28T05:12:24;1.10;70.60
4960;DHT22;2495;48.200;11.532;2023-02-28T05:17:26;1.50;70.80
4960;DHT22;2495;48.200;11.532;2023-02-28T05:22:27;1.80;69.70
4960;DHT22;2495;48.200;11.532;2023-02-28T05:27:28;1.60;68.70
4960;DHT22;2495;48.200;11.532;2023-02-28T05:32:30;1.30;68.80
4960;DHT22;2495;48.200;11.532;2023-02-28T05:37:31;1.50;69.50
4960;DHT22;2495;48.200;11.532;2023-02-28T05:42:32;1.40;69.10
4960;DHT22;2495;48.200;11.532;2023-02-28T05:47:34;1.30;68.60
4960;DHT22;2495;48.200;11.532;2023-02-28T05:52:35;1.30;70.20
4960;DHT22;2495;48.200;11.532;2023-02-28T05:57:37;1.50;69.30
4960;DHT22;2495;48.200;11.532;2023-02-28T06:02:38;1.50;68.70
4960;DHT22;2495;48.200;11.532;2023-02-28T06:07:39;1.60;69.70
4960;DHT22;2495;48.200;11.532;2023-02-28T06:12:41;1.80;69.20
4960;DHT22;2495;48.200;11.532;2023-02-28T06:17:43;1.60;68.30
4960;DHT22;2495;48.200;11.532;2023-02-28T06:22:44;1.20;69.00
4960;DHT22;2495;48.200;11.532;2023-02-28T06:27:45;1.20;68.70
4960;DHT22;2495;48.200;11.532;2023-02-28T06:32:46;1.20;68.90
4960;DHT22;2495;48.200;11.532;2023-02-28T06:37:47;1.40;69.80
4960;DHT22;2495;48.200;11.532;2023-02-28T06:42:49;1.40;68.70
4960;DHT22;2495;48.200;11.532;2023-02-28T06:47:50;1.20;68.80
4960;DHT22;2495;48.200;11.532;2023-02-28T06:52:51;1.10;69.30
4960;DHT22;2495;48.200;11.532;2023-02-28T06:57:52;0.90;69.80
4960;DHT22;2495;48.200;11.532;2023-02-28T07:02:53;0.90;70.10
4960;DHT22;2495;48.200;11.532;2023-02-28T07:07:57;1.20;70.90
4960;DHT22;2495;48.200;11.532;2023-02-28T07:13:02;1.60;69.40
4960;DHT22;2495;48.200;11.532;2023-02-28T07:18:03;1.80;68.50
4960;DHT22;2495;48.200;11.532;2023-02-28T07:23:04;1.90;67.80
4960;DHT22;2495;48.200;11.532;2023-02-28T07:28:05;1.80;67.50
4960;DHT22;2495;48.200;11.532;2023-02-28T07:33:07;1.60;67.70
4960;DHT22;2495;48.200;11.532;2023-02-28T07:38:08;1.50;68.00
4960;DHT22;2495;48.200;11.532;2023-02-28T07:43:09;1.30;68.20
4960;DHT22;2495;48.200;11.532;2023-02-28T07:48:11;1.20;68.50
4960;DHT22;2495;48.200;11.532;2023-02-28T07:53:12;1.10;69.10
4960;DHT22;2495;48.200;11.532;2023-02-28T07:58:13;1.10;69.10
4960;DHT22;2495;48.200;11.532;2023-02-28T08:03:15;1.30;70.20
4960;DHT22;2495;48.200;11.532;2023-02-28T08:08:16;1.50;68.50
4960;DHT22;2495;48.200;11.532;2023-02-28T08:13:17;1.50;67.80
4960;DHT22;2495;48.200;11.532;2023-02-28T08:18:18;1.40;68.40
4960;DHT22;2495;48.200;11.532;2023-02-28T08:23:20;1.50;68.10
4960;DHT22;2495;48.200;11.532;2023-02-28T08:28:27;1.50;68.20
4960;DHT22;2495;48.200;11.532;2023-02-28T08:33:28;1.50;68.90
4960;DHT22;2495;48.200;11.532;2023-02-28T08:38:34;1.50;68.30
4960;DHT22;2495;48.200;11.532;2023-02-28T08:43:35;1.50;68.20
4960;DHT22;2495;48.200;11.532;2023-02-28T08:48:36;1.50;68.10
4960;DHT22;2495;48.200;11.532;2023-02-28T08:53:38;1.80;69.10
4960;DHT22;2495;48.200;11.532;2023-02-28T08:58:39;2.30;68.20
4960;DHT22;2495;48.200;11.532;2023-02-28T09:03:40;2.30;66.30
4960;DHT22;2495;48.200;11.532;2023-02-28T09:08:41;2.10;67.00
4960;DHT22;2495;48.200;11.532;2023-02-28T09:13:42;2.00;66.80
4960;DHT22;2495;48.200;11.532;2023-02-28T09:18:44;2.00;66.30
4960;DHT22;2495;48.200;11.532;2023-02-28T09:23:46;2.10;66.90
4960;DHT22;2495;48.200;11.532;2023-02-28T09:28:46;2.00;66.80
4960;DHT22;2495;48.200;11.532;2023-02-28T09:33:51;2.30;67.10
4960;DHT22;2495;48.200;11.532;2023-02-28T09:38:52;2.80;66.50
4960;DHT22;2495;48.200;11.532;2023-02-28T09:43:56;2.80;65.30
4960;DHT22;2495;48.200;11.532;2023-02-28T09:48:57;2.60;65.20
4960;DHT22;2495;48.200;11.532;2023-02-28T09:54:01;2.60;64.80
4960;DHT22;2495;48.200;11.532;2023-02-28T10:09:55;4.20;61.10
4960;DHT22;2495;48.200;11.532;2023-02-28T10:14:56;4.40;60.30
4960;DHT22;2495;48.200;11.532;2023-02-28T10:20:07;4.50;60.40
4960;DHT22;2495;48.200;11.532;2023-02-28T10:25:21;5.10;60.30
4960;DHT22;2495;48.200;11.532;2023-02-28T10:30:24;6.80;55.70
4960;DHT22;2495;48.200;11.532;2023-02-28T10:35:26;6.20;54.90
4960;DHT22;2495;48.200;11.532;2023-02-28T10:40:34;5.20;56.90
4960;DHT22;2495;48.200;11.532;2023-02-28T10:45:34;5.50;58.30
4960;DHT22;2495;48.200;11.532;2023-02-28T11:06:20;7.40;52.50
4960;DHT22;2495;48.200;11.532;2023-02-28T11:11:21;6.70;54.00
4960;DHT22;2495;48.200;11.532;2023-02-28T11:16:22;7.20;53.90
4960;DHT22;2495;48.200;11.532;2023-02-28T11:21:27;7.10;53.00
4960;DHT22;2495;48.200;11.532;2023-02-28T11:26:44;7.10;52.90
4960;DHT22;2495;48.200;11.532;2023-02-28T11:32:05;8.90;51.00
4960;DHT22;2495;48.200;11.532;2023-02-28T11:37:18;10.50;47.20
4960;DHT22;2495;48.200;11.532;2023-02-28T11:42:49;11.20;45.00
4960;DHT22;2495;48.200;11.532;2023-02-28T11:47:56;11.60;44.90
4960;DHT22;2495;48.200;11.532;2023-02-28T11:53:01;11.50;45.50
4960;DHT22;2495;48.200;11.532;2023-02-28T11:58:20;11.80;44.80
4960;DHT22;2495;48.200;11.532;2023-02-28T12:03:30;11.50;44.30
4960;DHT22;2495;48.200;11.532;2023-02-28T12:14:16;11.80;42.40
4960;DHT22;2495;48.200;11.532;2023-02-28T12:19:12;12.10;41.80
4960;DHT22;2495;48.200;11.532;2023-02-28T12:29:57;12.40;41.20
4960;DHT22;2495;48.200;11.532;2023-02-28T12:40:15;13.80;40.40
4960;DHT22;2495;48.200;11.532;2023-02-28T12:45:20;14.10;37.70
4960;DHT22;2495;48.200;11.532;2023-02-28T12:50:21;13.40;39.00
4960;DHT22;2495;48.200;11.532;2023-02-28T13:00:37;12.80;40.80
4960;DHT22;2495;48.200;11.532;2023-02-28T13:10:51;12.10;40.70
4960;DHT22;2495;48.200;11.532;2023-02-28T13:16:03;12.10;40.60
4960;DHT22;2495;48.200;11.532;2023-02-28T13:21:09;11.30;41.80
4960;DHT22;2495;48.200;11.532;2023-02-28T13:26:10;10.60;43.20
4960;DHT22;2495;48.200;11.532;2023-02-28T13:31:12;10.60;42.90
4960;DHT22;2495;48.200;11.532;2023-02-28T13:47:15;10.50;44.30
4960;DHT22;2495;48.200;11.532;2023-02-28T14:02:50;8.60;47.90
4960;DHT22;2495;48.200;11.532;2023-02-28T14:07:50;8.30;48.80
4960;DHT22;2495;48.200;11.532;2023-02-28T14:17:57;8.20;48.60
4960;DHT22;2495;48.200;11.532;2023-02-28T14:33:38;8.20;49.10
4960;DHT22;2495;48.200;11.532;2023-02-28T14:38:39;8.00;49.80
4960;DHT22;2495;48.200;11.532;2023-02-28T14:43:46;7.80;49.40
4960;DHT22;2495;48.200;11.532;2023-02-28T14:48:38;7.70;49.90
4960;DHT22;2495;48.200;11.532;2023-02-28T14:53:47;7.70;50.30
4960;DHT22;2495;48.200;11.532;2023-02-28T14:58:50;7.80;50.20
4960;DHT22;2495;48.200;11.532;2023-02-28T15:03:45;7.80;50.00
4960;DHT22;2495;48.200;11.532;2023-02-28T15:08:47;7.50;50.50
4960;DHT22;2495;48.200;11.532;2023-02-28T15:13:52;7.30;51.70
4960;DHT22;2495;48.200;11.532;2023-02-28T15:19:00;7.40;52.10
4960;DHT22;2495;48.200;11.532;2023-02-28T15:29:44;7.20;52.30
4960;DHT22;2495;48.200;11.532;2023-02-28T15:34:45;7.70;52.80
4960;DHT22;2495;48.200;11.532;2023-02-28T15:39:46;7.70;52.50
4960;DHT22;2495;48.200;11.532;2023-02-28T15:50:54;8.00;51.60
4960;DHT22;2495;48.200;11.532;2023-02-28T15:56:05;7.60;51.70
4960;DHT22;2495;48.200;11.532;2023-02-28T16:01:16;7.30;52.80
4960;DHT22;2495;48.200;11.532;2023-02-28T16:11:23;6.70;53.60
4960;DHT22;2495;48.200;11.532;2023-02-28T16:16:25;6.70;52.90
4960;DHT22;2495;48.200;11.532;2023-02-28T16:21:26;6.60;53.50
4960;DHT22;2495;48.200;11.532;2023-02-28T16:26:27;6.50;54.10
4960;DHT22;2495;48.200;11.532;2023-02-28T16:31:28;6.50;54.70
4960;DHT22;2495;48.200;11.532;2023-02-28T16:36:30;6.80;54.40
4960;DHT22;2495;48.200;11.532;2023-02-28T16:41:31;6.80;53.80
4960;DHT22;2495;48.200;11.532;2023-02-28T16:46:33;6.80;54.50
4960;DHT22;2495;48.200;11.532;2023-02-28T16:51:34;6.70;54.00
4960;DHT22;2495;48.200;11.532;2023-02-28T16:56:35;6.40;54.20
4960;DHT22;2495;48.200;11.532;2023-02-28T17:01:37;6.40;55.70
4960;DHT22;2495;48.200;11.532;2023-02-28T17:06:38;6.30;54.60
4960;DHT22;2495;48.200;11.532;2023-02-28T17:11:39;6.20;55.70
4960;DHT22;2495;48.200;11.532;2023-02-28T17:16:41;6.30;54.70
4960;DHT22;2495;48.200;11.532;2023-02-28T17:21:42;6.10;54.70
4960;DHT22;2495;48.200;11.532;2023-02-28T17:26:43;6.00;54.90
4960;DHT22;2495;48.200;11.532;2023-02-28T17:31:45;5.80;55.50
4960;DHT22;2495;48.200;11.532;2023-02-28T17:36:47;5.70;55.60
4960;DHT22;2495;48.200;11.532;2023-02-28T17:41:48;5.80;56.20
4960;DHT22;2495;48.200;11.532;2023-02-28T17:46:49;6.00;57.30
4960;DHT22;2495;48.200;11.532;2023-02-28T17:51:53;6.10;56.40
4960;DHT22;2495;48.200;11.532;2023-02-28T17:56:55;6.30;57.00
4960;DHT22;2495;48.200;11.532;2023-02-28T18:01:57;6.60;57.20
4960;DHT22;2495;48.200;11.532;2023-02-28T18:06:58;6.80;56.40
4960;DHT22;2495;48.200;11.532;2023-02-28T18:12:02;6.70;55.60
4960;DHT22;2495;48.200;11.532;2023-02-28T18:17:03;6.40;55.90
4960;DHT22;2495;48.200;11.532;2023-02-28T18:22:05;6.30;56.10
4960;DHT22;2495;48.200;11.532;2023-02-28T18:27:09;6.00;56.80
4960;DHT22;2495;48.200;11.532;2023-02-28T18:32:10;6.10;58.00
4960;DHT22;2495;48.200;11.532;2023-02-28T18:37:12;6.40;57.80
4960;DHT22;2495;48.200;11.532;2023-02-28T18:42:13;6.40;57.00
4960;DHT22;2495;48.200;11.532;2023-02-28T18:47:14;6.10;57.30
4960;DHT22;2495;48.200;11.532;2023-02-28T18:52:16;6.00;57.40
4960;DHT22;2495;48.200;11.532;2023-02-28T18:57:19;5.90;58.30
4960;DHT22;2495;48.200;11.532;2023-02-28T19:02:20;5.70;58.30
4960;DHT22;2495;48.200;11.532;2023-02-28T19:07:22;5.80;59.00
4960;DHT22;2495;48.200;11.532;2023-02-28T19:12:23;6.00;58.50
4960;DHT22;2495;48.200;11.532;2023-02-28T19:17:27;5.90;58.50
4960;DHT22;2495;48.200;11.532;2023-02-28T19:22:29;5.80;58.50
4960;DHT22;2495;48.200;11.532;2023-02-28T19:27:30;5.60;59.20
4960;DHT22;2495;48.200;11.532;2023-02-28T19:32:31;5.50;59.40
4960;DHT22;2495;48.200;11.532;2023-02-28T19:37:38;5.50;61.00
4960;DHT22;2495;48.200;11.532;2023-02-28T19:42:43;5.50;60.60
4960;DHT22;2495;48.200;11.532;2023-02-28T19:47:44;5.40;60.70
4960;DHT22;2495;48.200;11.532;2023-02-28T19:52:46;5.50;61.50
4960;DHT22;2495;48.200;11.532;2023-02-28T19:57:47;5.80;61.90
4960;DHT22;2495;48.200;11.532;2023-02-28T20:02:48;5.70;60.50
4960;DHT22;2495;48.200;11.532;2023-02-28T20:07:49;5.50;61.00
4960;DHT22;2495;48.200;11.532;2023-02-28T20:12:51;5.30;61.50
4960;DHT22;2495;48.200;11.532;2023-02-28T20:17:52;5.30;62.70
4960;DHT22;2495;48.200;11.532;2023-02-28T20:22:53;5.30;61.70
4960;DHT22;2495;48.200;11.532;2023-02-28T20:27:55;5.30;62.00
4960;DHT22;2495;48.200;11.532;2023-02-28T20:32:57;5.20;62.30
4960;DHT22;2495;48.200;11.532;2023-02-28T20:37:58;5.10;62.60
4960;DHT22;2495;48.200;11.532;2023-02-28T20:42:59;5.10;63.10
4960;DHT22;2495;48.200;11.532;2023-02-28T20:48:00;5.10;63.40
4960;DHT22;2495;48.200;11.532;2023-02-28T20:53:02;5.20;64.30
4960;DHT22;2495;48.200;11.532;2023-02-28T20:58:03;5.30;63.40
4960;DHT22;2495;48.200;11.532;2023-02-28T21:03:07;5.20;63.10
4960;DHT22;2495;48.200;11.532;2023-02-28T21:08:09;5.10;63.60
4960;DHT22;2495;48.200;11.532;2023-02-28T21:13:11;5.20;64.60
4960;DHT22;2495;48.200;11.532;2023-02-28T21:18:12;5.40;63.20
4960;DHT22;2495;48.200;11.532;2023-02-28T21:23:14;5.70;63.00
4960;DHT22;2495;48.200;11.532;2023-02-28T21:28:16;5.60;62.20
4960;DHT22;2495;48.200;11.532;2023-02-28T22:16:05;4.70;64.80
4960;DHT22;2495;48.200;11.532;2023-02-28T22:21:06;4.60;65.20
4960;DHT22;2495;48.200;11.532;2023-02-28T22:26:08;4.70;65.50
4960;DHT22;2495;48.200;11.532;2023-02-28T22:31:13;4.60;64.50
4960;DHT22;2495;48.200;11.532;2023-02-28T22:36:14;4.60;65.50
4960;DHT22;2495;48.200;11.532;2023-02-28T22:41:15;4.50;65.10
4960;DHT22;2495;48.200;11.532;2023-02-28T22:46:16;4.50;64.80
4960;DHT22;2495;48.200;11.532;2023-02-28T22:51:21;4.40;65.10
4960;DHT22;2495;48.200;11.532;2023-02-28T22:56:26;4.50;65.30
4960;DHT22;2495;48.200;11.532;2023-02-28T23:01:31;4.40;65.60
4960;DHT22;2495;48.200;11.532;2023-02-28T23:06:39;4.60;66.90
4960;DHT22;2495;48.200;11.532;2023-02-28T23:11:40;4.70;65.10
4960;DHT22;2495;48.200;11.532;2023-02-28T23:16:50;4.90;66.30
4960;DHT22;2495;48.200;11.532;2023-02-28T23:21:51;4.80;65.60
4960;DHT22;2495;48.200;11.532;2023-02-28T23:26:54;4.80;64.60
4960;DHT22;2495;48.200;11.532;2023-02-28T23:31:58;4.90;65.60
4960;DHT22;2495;48.200;11.532;2023-02-28T23:37:02;4.80;64.50
4960;DHT22;2495;48.200;11.532;2023-02-28T23:42:03;4.90;65.80
4960;DHT22;2495;48.200;11.532;2023-02-28T23:47:05;5.20;64.80
4960;DHT22;2495;48.200;11.532;2023-02-28T23:52:07;5.00;63.50
4960;DHT22;2495;48.200;11.532;2023-02-28T23:57:08;4.90;64.00
